createdAt,value
2022-12-18T00:00:06.256Z,47.63
2022-12-18T00:05:15.529Z,48.23
2022-12-18T00:10:19.430Z,47.83
2022-12-18T00:15:24.237Z,45.93
2022-12-18T00:20:26.663Z,39.43
2022-12-18T00:25:29.024Z,50.67
2022-12-18T00:30:30.853Z,47.57
2022-12-18T00:35:36.589Z,50.47
2022-12-18T00:40:38.246Z,48.80
2022-12-18T00:45:46.994Z,44.67
2022-12-18T00:50:51.551Z,49.10
2022-12-18T00:55:55.916Z,51.07
2022-12-18T01:00:57.617Z,49.83
2022-12-18T01:06:05.775Z,50.73
2022-12-18T01:11:21.413Z,48.30
2022-12-18T01:16:26.054Z,50.17
2022-12-18T01:21:28.197Z,46.03
2022-12-18T01:26:31.991Z,52.03
2022-12-18T01:31:34.739Z,46.10
2022-12-18T01:36:39.926Z,52.13
2022-12-18T01:42:02.173Z,48.60
2022-12-18T01:47:11.539Z,49.80
2022-12-18T01:52:14.583Z,46.47
2022-12-18T01:57:18.510Z,51.73
2022-12-18T02:02:22.681Z,53.77
2022-12-18T02:07:49.283Z,54.83
2022-12-18T02:12:56.452Z,53.97
2022-12-18T02:18:05.462Z,54.90
2022-12-18T02:23:25.314Z,55.13
2022-12-18T02:28:34.682Z,53.20
2022-12-18T02:33:41.532Z,54.30
2022-12-18T02:38:45.664Z,54.03
2022-12-18T02:43:59.620Z,55.63
2022-12-18T02:49:13.701Z,55.07
2022-12-18T02:54:59.680Z,54.13
2022-12-18T03:00:06.948Z,54.37
2022-12-18T03:05:14.812Z,55.43
2022-12-18T03:10:21.923Z,52.77
2022-12-18T03:15:31.705Z,53.77
2022-12-18T03:20:45.792Z,50.60
2022-12-18T03:25:53.049Z,54.67
2022-12-18T03:31:00.298Z,54.87
2022-12-18T03:36:05.308Z,55.20
2022-12-18T03:41:30.074Z,48.80
2022-12-18T03:47:11.487Z,54.63
2022-12-18T03:52:19.641Z,47.93
2022-12-18T03:57:26.629Z,47.10
2022-12-18T04:02:31.004Z,39.07
2022-12-18T04:07:36.438Z,48.73
2022-12-18T04:12:40.718Z,48.63
2022-12-18T04:17:51.407Z,44.67
2022-12-18T04:23:00.081Z,42.40
2022-12-18T04:28:03.515Z,42.17
2022-12-18T04:33:14.107Z,41.07
2022-12-18T04:38:18.562Z,39.97
2022-12-18T04:43:23.420Z,38.23
2022-12-18T04:48:29.468Z,36.20
2022-12-18T04:53:36.748Z,35.90
2022-12-18T04:58:42.768Z,34.07
2022-12-18T05:03:45.186Z,35.47
2022-12-18T05:08:49.050Z,34.40
2022-12-18T05:13:50.862Z,35.43
2022-12-18T05:19:03.876Z,33.57
2022-12-18T05:24:06.193Z,33.53
2022-12-18T05:29:08.870Z,25.53
2022-12-18T05:34:10.634Z,32.30
2022-12-18T05:39:15.640Z,32.07
2022-12-18T05:44:19.945Z,31.33
2022-12-18T05:49:23.912Z,30.10
2022-12-18T05:54:28.368Z,28.63
2022-12-18T05:59:34.905Z,30.27
2022-12-18T06:04:39.633Z,26.80
2022-12-18T06:09:44.649Z,27.83
2022-12-18T06:14:46.416Z,27.60
2022-12-18T06:19:48.062Z,26.20
2022-12-18T06:24:49.860Z,26.70
2022-12-18T06:29:54.173Z,26.33
2022-12-18T06:34:58.448Z,25.30
2022-12-18T06:40:02.650Z,26.23
2022-12-18T06:45:08.953Z,23.90
2022-12-18T06:50:10.922Z,23.70
2022-12-18T06:55:15.093Z,22.80
2022-12-18T07:00:19.398Z,24.07
2022-12-18T07:05:24.443Z,21.97
2022-12-18T07:10:26.351Z,20.50
2022-12-18T07:15:34.091Z,22.90
2022-12-18T07:20:38.117Z,21.70
2022-12-18T07:25:42.204Z,21.87
2022-12-18T07:30:43.933Z,20.07
2022-12-18T07:35:47.903Z,20.70
2022-12-18T07:40:50.104Z,21.10
2022-12-18T07:45:54.167Z,20.30
2022-12-18T07:51:02.050Z,21.27
2022-12-18T08:01:30.867Z,19.97
2022-12-18T08:06:33.064Z,19.33
2022-12-18T08:11:37.244Z,18.60
2022-12-18T08:16:41.463Z,20.33
2022-12-18T08:21:43.185Z,21.00
2022-12-18T08:26:55.880Z,23.17
2022-12-18T08:32:07.182Z,24.67
2022-12-18T08:37:08.980Z,17.93
2022-12-18T08:42:31.928Z,21.73
2022-12-18T08:47:36.474Z,32.87
2022-12-18T08:52:40.935Z,19.63
2022-12-18T08:57:42.668Z,16.73
2022-12-18T09:02:47.428Z,14.77
2022-12-18T09:07:49.392Z,17.40
2022-12-18T09:12:51.296Z,13.80
2022-12-18T09:17:55.208Z,18.87
2022-12-18T09:23:00.268Z,25.67
2022-12-18T09:28:07.972Z,13.03
2022-12-18T09:33:15.002Z,14.37
2022-12-18T09:38:20.902Z,13.07
2022-12-18T09:43:37.056Z,13.27
2022-12-18T09:48:49.115Z,12.57
2022-12-18T09:54:00.904Z,12.60
2022-12-18T09:59:05.085Z,11.80
2022-12-18T10:04:15.246Z,11.80
2022-12-18T10:09:37.455Z,11.03
2022-12-18T10:14:53.320Z,12.83
2022-12-18T10:20:08.397Z,10.97
2022-12-18T10:25:28.973Z,10.93
2022-12-18T10:30:33.677Z,10.40
2022-12-18T10:35:36.048Z,13.77
2022-12-18T10:40:50.924Z,15.07
2022-12-18T10:46:04.607Z,11.27
2022-12-18T10:51:13.032Z,11.93
2022-12-18T10:56:21.316Z,10.13
2022-12-18T11:01:23.368Z,10.77
2022-12-18T11:06:37.113Z,10.00
2022-12-18T11:11:38.859Z,11.00
2022-12-18T11:17:03.024Z,10.67
2022-12-18T11:22:20.026Z,10.90
2022-12-18T11:27:22.068Z,10.50
2022-12-18T11:32:33.149Z,9.43
2022-12-18T11:37:35.219Z,9.30
2022-12-18T11:42:49.854Z,9.20
2022-12-18T11:48:15.216Z,11.13
2022-12-18T11:53:23.763Z,9.97
2022-12-18T11:58:50.458Z,12.30
2022-12-18T12:04:03.460Z,12.30
2022-12-18T12:09:49.189Z,10.63
2022-12-18T12:15:11.512Z,12.03
2022-12-18T12:20:16.783Z,10.90
2022-12-18T12:25:51.117Z,12.73
2022-12-18T12:31:04.139Z,12.13
2022-12-18T12:36:49.941Z,11.63
2022-12-18T12:42:10.540Z,12.53
2022-12-18T12:47:28.922Z,15.37
2022-12-18T12:52:47.582Z,13.27
2022-12-18T12:58:12.257Z,19.43
2022-12-18T13:03:32.129Z,14.67
2022-12-18T13:08:57.827Z,13.17
2022-12-18T13:14:05.041Z,12.77
2022-12-18T13:19:22.877Z,12.80
2022-12-18T13:24:27.822Z,12.33
2022-12-18T13:29:44.977Z,12.83
2022-12-18T13:35:39.921Z,12.60
2022-12-18T13:40:48.054Z,11.87
2022-12-18T13:46:29.153Z,12.33
2022-12-18T13:51:33.010Z,11.80
2022-12-18T13:56:45.470Z,13.30
2022-12-18T14:01:55.195Z,12.97
2022-12-18T14:07:04.102Z,11.00
2022-12-18T14:12:51.796Z,10.47
2022-12-18T14:17:56.932Z,10.97
2022-12-18T14:23:01.685Z,12.23
2022-12-18T14:28:16.055Z,10.73
2022-12-18T14:33:28.451Z,10.07
2022-12-18T14:38:40.098Z,9.97
2022-12-18T14:43:47.813Z,10.03
2022-12-18T14:48:58.501Z,9.63
2022-12-18T14:54:04.056Z,9.27
2022-12-18T14:59:23.865Z,8.50
2022-12-18T15:04:36.154Z,9.07
2022-12-18T15:09:38.876Z,9.50
2022-12-18T15:14:45.521Z,9.70
2022-12-18T15:19:51.247Z,9.17
2022-12-18T15:24:56.999Z,10.50
2022-12-18T15:30:27.066Z,9.50
2022-12-18T15:35:28.852Z,9.33
2022-12-18T15:40:30.655Z,9.47
2022-12-18T15:45:36.899Z,10.97
2022-12-18T15:50:41.557Z,9.70
2022-12-18T15:56:03.028Z,10.33
2022-12-18T16:01:04.875Z,9.37
2022-12-18T16:06:10.558Z,10.90
2022-12-18T16:11:43.554Z,9.33
2022-12-18T16:16:51.105Z,10.53
2022-12-18T16:21:54.290Z,10.90
2022-12-18T16:27:00.326Z,9.37
2022-12-18T16:32:02.745Z,9.33
2022-12-18T16:37:07.106Z,7.77
2022-12-18T16:42:17.863Z,11.38
2022-12-18T16:47:23.969Z,9.90
2022-12-18T16:52:31.103Z,9.53
2022-12-18T16:57:35.390Z,8.17
2022-12-18T17:02:38.758Z,8.90
2022-12-18T17:07:42.778Z,9.07
2022-12-18T17:12:44.427Z,8.60
2022-12-18T17:17:46.169Z,10.43
2022-12-18T17:22:50.077Z,10.38
2022-12-18T17:27:52.767Z,9.23
2022-12-18T17:33:00.246Z,8.53
2022-12-18T17:38:01.884Z,9.20
2022-12-18T17:43:05.790Z,7.90
2022-12-18T17:48:13.140Z,8.73
2022-12-18T17:53:18.848Z,6.37
2022-12-18T17:58:21.690Z,7.50
2022-12-18T18:03:24.802Z,8.77
2022-12-18T18:08:27.262Z,7.20
2022-12-18T18:13:47.381Z,13.33
2022-12-18T18:18:51.535Z,12.57
2022-12-18T18:23:55.602Z,8.90
2022-12-18T18:29:01.975Z,10.17
2022-12-18T18:34:11.387Z,8.77
2022-12-18T18:39:13.916Z,9.02
2022-12-18T18:44:20.524Z,8.93
2022-12-18T18:49:27.677Z,9.00
2022-12-18T18:54:51.918Z,12.83
2022-12-18T19:00:03.880Z,8.40
2022-12-18T19:05:06.169Z,9.73
2022-12-18T19:10:11.439Z,9.03
2022-12-18T19:15:13.691Z,9.07
2022-12-18T19:20:18.936Z,12.77
2022-12-18T19:25:21.231Z,9.70
2022-12-18T19:30:23.704Z,9.30
2022-12-18T19:35:28.115Z,10.13
2022-12-18T19:40:31.612Z,9.53
2022-12-18T19:45:34.311Z,9.23
2022-12-18T19:50:44.443Z,10.10
2022-12-18T19:55:48.243Z,10.00
2022-12-18T20:00:53.707Z,9.87
2022-12-18T20:05:55.534Z,9.53
2022-12-18T20:10:57.355Z,12.47
2022-12-18T20:16:02.868Z,10.80
2022-12-18T20:21:13.606Z,11.53
2022-12-18T20:26:20.253Z,9.70
2022-12-18T20:31:24.729Z,12.40
2022-12-18T20:36:26.926Z,10.93
2022-12-18T20:41:37.907Z,12.03
2022-12-18T20:46:42.991Z,11.23
2022-12-18T20:51:50.370Z,9.93
2022-12-18T20:56:55.744Z,9.13
2022-12-18T21:01:58.650Z,9.40
2022-12-18T21:07:03.077Z,10.07
2022-12-18T21:12:29.366Z,9.33
2022-12-18T21:17:41.118Z,10.07
2022-12-18T21:22:47.226Z,10.10
2022-12-18T21:27:51.234Z,11.88
2022-12-18T21:32:55.885Z,9.83
2022-12-18T21:37:57.612Z,9.97
2022-12-18T21:43:20.572Z,9.13
2022-12-18T21:48:26.028Z,9.33
2022-12-18T21:53:27.748Z,9.50
2022-12-18T21:58:29.417Z,10.10
2022-12-18T22:03:32.144Z,9.37
2022-12-18T22:08:34.285Z,9.93
2022-12-18T22:13:35.952Z,9.50
2022-12-18T22:18:39.999Z,9.67
2022-12-18T22:23:44.645Z,9.10
2022-12-18T22:29:10.127Z,9.63
2022-12-18T22:34:14.472Z,9.13
2022-12-18T22:39:22.080Z,8.43
2022-12-18T22:44:26.711Z,9.47
2022-12-18T22:49:33.919Z,7.80
2022-12-18T22:54:37.188Z,8.33
2022-12-18T22:59:39.198Z,8.87
2022-12-18T23:04:47.431Z,8.77
2022-12-18T23:09:50.775Z,9.30
2022-12-18T23:15:03.579Z,8.50
2022-12-18T23:20:06.073Z,9.23
2022-12-18T23:25:10.875Z,10.00
2022-12-18T23:30:12.908Z,9.57
2022-12-18T23:35:18.689Z,8.73
2022-12-18T23:40:20.368Z,11.00
2022-12-18T23:45:22.001Z,10.63
2022-12-18T23:50:29.026Z,11.53
2022-12-18T23:55:31.787Z,11.03
